ADDS METAR Data INFO
IDs: Format: Raw Decoded Include TAF

Data at: 0425 UTC 26 May 2018

KFBR 260415Z AUTO 21010KT 10SM CLR 18/M07 A3004 RMK AO2 T01831070
KFBR 260400Z AUTO 21012KT 10SM CLR 19/M07 A3004 RMK AO2 T01861070
KFBR 260335Z AUTO 20012KT 10SM CLR 18/M06 A3003 RMK AO2 T01811062
KFBR 260315Z AUTO 20010KT 10SM CLR 19/M05 A3003 RMK AO2 LTG DSNT N T01861048
KFBR 260255Z AUTO 20010KT 10SM CLR 20/M04 A3003 RMK AO2 T01951037
KFBR 260240Z AUTO 19009KT 10SM CLR 20/M03 A3003 RMK AO2 T02011032
KFBR 260215Z AUTO 16005KT 10SM CLR 23/M04 A3003 RMK AO2 T02301039
KFBR 260200Z AUTO 16006KT 10SM CLR 25/M05 A3003 RMK AO2 T02461053
KFBR 260135Z AUTO 16008KT 10SM CLR 26/M06 A3003 RMK AO2 T02571059
KFBR 260115Z AUTO 16006KT 10SM CLR 26/M07 A3003 RMK AO2 T02611067
KFBR 260055Z AUTO 15009KT 10SM CLR 26/M06 A3004 RMK AO2 T02641063
KFBR 260040Z AUTO 13010KT 10SM SCT120 27/M05 A3004 RMK AO2 T02651054
KFBR 260015Z AUTO 13009G14KT 10SM SCT120 27/M05 A3005 RMK AO2 T02701047
KFBR 260000Z AUTO 15011G14KT 10SM SCT120 27/M05 A3006 RMK AO2 T02721049
KFBR 252335Z AUTO 16008KT 10SM BKN110 27/M04 A3006 RMK AO2 T02701039
KFBR 252315Z AUTO 17005KT 10SM BKN110 27/M04 A3008 RMK AO2 T02671039
KFBR 252255Z AUTO 18005KT 10SM SCT120 26/M03 A3008 RMK AO2 T02631035
KFBR 252235Z AUTO 16006KT 10SM SCT100 27/M02 A3008 RMK AO2 T02671022
KFBR 252215Z AUTO 17005KT 10SM SCT110 25/M04 A3009 RMK AO2 T02541040
KFBR 252155Z AUTO 22009G16KT 10SM SCT120 27/M03 A3010 RMK AO2 T02711026
KFBR 252140Z AUTO 23007KT 10SM BKN120 25/M02 A3011 RMK AO2 T02511024
KFBR 252115Z AUTO 20010G16KT 10SM BKN110 26/M03 A3011 RMK AO2 T02621026
KFBR 252055Z AUTO 26003G14KT 10SM BKN110 25/M02 A3012 RMK AO2 T02461023
KFBR 252035Z AUTO 13009G18KT 110V170 10SM BKN095 26/M02 A3012 RMK AO2 T02641020
KFBR 251955Z AUTO 13003KT 10SM CLR 25/M02 A3014 RMK AO2 T02501018
KFBR 251935Z AUTO 10009KT 10SM CLR 25/M01 A3014 RMK AO2 T02501015
KFBR 251915Z AUTO 00000KT 10SM CLR 24/00 A3016 RMK AO2 T02440001
KFBR 251855Z AUTO 04007KT 10SM CLR 24/02 A3016 RMK AO2 T02410022
KFBR 251835Z AUTO 04008KT 010V070 10SM CLR 23/04 A3017 RMK AO2 T02290037
KFBR 251815Z AUTO 08007KT 10SM CLR 22/04 A3018 RMK AO2 T02240039
KFBR 251755Z AUTO 06007KT 10SM CLR 21/05 A3019 RMK AO2 T02140048 10214 20080
KFBR 251735Z AUTO 06003KT 10SM CLR 20/05 A3020 RMK AO2 T02030054
KFBR 251715Z AUTO 04004KT 10SM CLR 19/06 A3020 RMK AO2 T01940056
KFBR 251655Z AUTO 08007KT 10SM CLR 19/06 A3020 RMK AO2 T01900059
KFBR 251635Z AUTO 06006KT 10SM CLR 18/06 A3021 RMK AO2 T01830059
KFBR 251615Z AUTO 00000KT 10SM CLR 17/06 A3022 RMK AO2 T01690059
KFBR 251555Z AUTO 04005KT 10SM CLR 16/06 A3022 RMK AO2 T01620059
KFBR 251515Z AUTO 07005KT 10SM CLR 15/06 A3022 RMK AO2 T01530063
KFBR 251455Z AUTO 08006KT 10SM CLR 14/06 A3022 RMK AO2 T01420060
KFBR 251435Z AUTO 06004KT 10SM CLR 14/06 A3022 RMK AO2 T01350061
KFBR 251415Z AUTO 08006KT 10SM CLR 13/06 A3022 RMK AO2 T01300059
KFBR 251355Z AUTO 08005KT 10SM CLR 13/06 A3022 RMK AO2 T01280059
KFBR 251335Z AUTO 08003KT 10SM CLR 12/06 A3022 RMK AO2 T01210059
KFBR 251315Z AUTO 05003KT 10SM CLR 11/06 A3022 RMK AO2 T01060057
KFBR 251255Z AUTO 04004KT 10SM CLR 10/06 A3022 RMK AO2 T00950055
KFBR 251230Z AUTO 06003KT 10SM CLR 10/05 A3022 RMK AO2 T00980050
KFBR 251215Z AUTO 04004KT 10SM CLR 09/04 A3022 RMK AO2 T00860044
KFBR 251155Z AUTO 07005KT 10SM CLR 09/04 A3022 RMK AO2 T00920044 10148 20090
KFBR 251135Z AUTO 08003KT 10SM CLR 09/04 A3022 RMK AO2 T00910043
KFBR 251115Z AUTO 06004KT 10SM CLR 10/05 A3022 RMK AO2 T01030047
KFBR 251055Z AUTO 03003KT 10SM CLR 10/04 A3022 RMK AO2 LTG DSNT NW T00980043
KFBR 251035Z AUTO 00000KT 10SM CLR 10/04 A3022 RMK AO2 LTG DSNT NW T01040044
KFBR 251015Z AUTO 00000KT 10SM CLR 10/04 A3022 RMK AO2 T01020037
KFBR 250955Z AUTO 17003KT 10SM CLR 11/03 A3024 RMK AO2 T01080032
KFBR 250935Z AUTO 15005KT 10SM CLR 11/04 A3024 RMK AO2 T01070036
KFBR 250915Z AUTO 15006KT 10SM CLR 11/04 A3024 RMK AO2 T01130035
KFBR 250900Z AUTO 15004KT 10SM CLR 11/04 A3024 RMK AO2 T01120037
KFBR 250755Z AUTO 11006KT 10SM SCT110 11/04 A3024 RMK AO2 T01070043
KFBR 250735Z AUTO 11007KT 10SM CLR 11/04 A3024 RMK AO2 T01060043
KFBR 250715Z AUTO 10007KT 10SM CLR 12/04 A3025 RMK AO2 T01150043
KFBR 250655Z AUTO 07005KT 10SM CLR 12/04 A3026 RMK AO2 T01180041
KFBR 250635Z AUTO 06006KT 10SM CLR 12/04 A3026 RMK AO2 T01230040
KFBR 250615Z AUTO 03004KT 10SM CLR 13/02 A3026 RMK AO2 T01300024
KFBR 250555Z AUTO 04005KT 10SM CLR 16/01 A3026 RMK AO2 T01600014 10237 20140 402420067
KFBR 250535Z AUTO 05004KT 10SM CLR 16/02 A3026 RMK AO2 T01570017
KFBR 250515Z AUTO 06005KT 10SM CLR 16/02 A3026 RMK AO2 T01570019
KFBR 250455Z AUTO 05005KT 10SM CLR 15/03 A3026 RMK AO2 T01500026
KFBR 250435Z AUTO 06004KT 10SM CLR 15/02 A3026 RMK AO2 T01500022
KFBR 250415Z AUTO 08005KT 10SM CLR 15/02 A3026 RMK AO2 T01500017
KFBR 250355Z AUTO 03003KT 10SM CLR 16/01 A3025 RMK AO2 T01570013
KFBR 250335Z AUTO 36004KT 10SM CLR 16/00 A3024 RMK AO2 T01610002
KFBR 250315Z AUTO 34005KT 10SM CLR 17/00 A3024 RMK AO2 T01740000
KFBR 250255Z AUTO 35003KT 10SM SCT110 18/00 A3023 RMK AO2 T01750000
KFBR 250240Z AUTO 34004KT 10SM SCT110 19/00 A3023 RMK AO2 T01850001
KFBR 250215Z AUTO 32008KT 10SM SCT110 21/00 A3022 RMK AO2 T02050000
KFBR 250155Z AUTO 31007KT 10SM SCT095 SCT110 22/00 A3022 RMK AO2 T02151001
KFBR 250135Z AUTO 28008G18KT 10SM SCT095 21/M01 A3022 RMK AO2 T02121015
KFBR 250115Z AUTO 27009G15KT 10SM CLR 23/M01 A3022 RMK AO2 T02251008
KFBR 250055Z AUTO 27011G16KT 10SM CLR 23/M01 A3021 RMK AO2 T02281014
KFBR 250035Z AUTO 27010G16KT 10SM CLR 23/M01 A3022 RMK AO2 T02311009
KFBR 250015Z AUTO 27004G14KT 10SM SCT090 SCT110 23/M01 A3022 RMK AO2 T02311010
KFBR 242355Z AUTO 29013G17KT 10SM SCT090 SCT110 24/00 A3022 RMK AO2 T02401002 10242 20200
KFBR 242335Z AUTO 29012G15KT 10SM SCT090 23/00 A3022 RMK AO2 T02301001
KFBR 242315Z AUTO 26008G15KT 10SM CLR 24/M02 A3022 RMK AO2 LTG DSNT N T02371019
KFBR 242255Z AUTO 25009KT 10SM SCT120 24/00 A3022 RMK AO2 LTG DSNT N T02420000
KFBR 242235Z AUTO 30009G18KT 10SM SCT080 BKN120 23/01 A3023 RMK AO2 LTG DSNT N T02290006
KFBR 242215Z AUTO 28013G18KT 10SM SCT080 SCT110 24/00 A3024 RMK AO2 T02360004
KFBR 242155Z AUTO 25013G22KT 10SM CLR 24/00 A3024 RMK AO2 LTG DSNT N T02390000
KFBR 242135Z AUTO 27015G23KT 10SM SCT090 24/00 A3024 RMK AO2 T02420000
KFBR 242115Z AUTO 27013G22KT 10SM SCT090 24/00 A3025 RMK AO2 T02360003
KFBR 242055Z AUTO 26013G21KT 10SM SCT085 SCT110 23/00 A3025 RMK AO2 T02331003
KFBR 242035Z AUTO 25011G19KT 10SM SCT075 SCT100 24/M01 A3025 RMK AO2 T02361007
KFBR 242015Z AUTO 27010G20KT 10SM SCT075 23/M01 A3025 RMK AO2 T02311011
KFBR 241955Z AUTO 25012G20KT 10SM SCT070 SCT075 SCT090 23/02 A3025 RMK AO2 T02270017
KFBR 241935Z AUTO 26010G18KT 10SM SCT060 SCT080 SCT090 23/02 A3026 RMK AO2 T02270024
KFBR 241915Z AUTO 26009G17KT 220V300 10SM SCT060 SCT080 SCT090 22/03 A3027 RMK AO2 T02200029
KFBR 241900Z AUTO 27013G17KT 10SM SCT060 BKN080 22/03 A3027 RMK AO2 T02170029
KFBR 241835Z AUTO 30015G19KT 10SM BKN060 21/03 A3028 RMK AO2 T02060025
KFBR 241815Z AUTO 27013G19KT 10SM BKN060 BKN080 21/02 A3028 RMK AO2 T02050023
KFBR 241755Z AUTO 29013G20KT 10SM SCT060 SCT070 21/03 A3028 RMK AO2 T02060026 10206 20075
KFBR 241735Z AUTO 28012G21KT 10SM CLR 20/03 A3028 RMK AO2 T02000027
KFBR 241715Z AUTO 25011G18KT 10SM CLR 19/03 A3028 RMK AO2 T01930030
KFBR 241655Z AUTO 26010G16KT 10SM CLR 19/03 A3028 RMK AO2 T01910032
KFBR 241635Z AUTO 26009G17KT 10SM SCT075 19/03 A3028 RMK AO2 T01880029